Logo AVAMET
Benvolgut visitant, si us plau, ingressa Recuperar contrasenya
AVAMET paisatges

Teulada Sant Jaume

Dades diàries. Acumulats / Últims 30 dies disponibles

Data Temperatura (°C) Humitat rel. (%) Pressió rel. (hPa) Vent (km/h) Precipitació
Mínima Mitjana Màxima Amplitud
tèrmica
Mínima Mitjana Màxima Mínima Mitjana Màxima Predom. Mitjana Ràfega
màxima
Total
(mm)
Índex-n
Mínima Mitjana Màxima Mínima Mitjana Màxima n
0 a 1
P0 max
mm 5'
Dades mensuals acumulades fins l'últim dia disponible
12/2020 5,0 7,2 9,3 11,3 14,3 15,4 17,6 12,6 36 66 98 990 1.006 1.019   8,1 40,7 1,0
Dades anuals acumulades fins l'últim dia disponible
2020 4,9 14,1 24,1 17,8 9,9 22,3 34,4 29,5 21 77 98 990 1.015 1.031   6,9 86,6 526,6
Últims 30 dies disponibles
04-12-2020 7,9     11,1     14,8 6,9 36 58 79 990 993 999 O 8,6 40,7 1,0
03-12-2020 5,0     10,1     14,3 9,3 41 52 63 999 1.006 1.011 SO 7,8 24,1 0,0
02-12-2020 6,4     11,2     14,9 8,5 48 65 82 1.006 1.009 1.011 N 11,2 35,1 0,0
01-12-2020 9,3     12,6     17,6 8,3 79 89 98 1.010 1.015 1.019 ONO 4,7 16,6 0,0
30-11-2020 9,0     12,1     17,4 8,4 84 93 98 1.016 1.018 1.019 ESE 3,3 14,8 0,0
29-11-2020 10,3     13,0     17,0 6,7 78 87 96 1.006 1.011 1.016 N 8,3 20,4 0,0
28-11-2020 10,3     11,3     12,5 2,2 80 89 98 998 1.001 1.006 NNO 11,5 33,3 5,0
27-11-2020 10,6     14,8     18,1 7,5 75 87 98 1.000 1.003 1.008 ESE 7,1 37,0 7,4
26-11-2020 10,8     14,4     18,6 7,8 84 91 98 1.008 1.009 1.012 ENE 3,2 12,9 0,0
25-11-2020 8,6     13,0     16,7 8,1 74 86 97 1.011 1.013 1.016 SSO 4,8 27,8 0,0
24-11-2020 8,7     12,7     15,9 7,2 74 83 91 1.016 1.019 1.022 SO 8,0 22,2 0,0
23-11-2020 7,5     11,3     16,3 8,8 70 83 96 1.022 1.024 1.025 SSO 2,7 11,1 0,0
22-11-2020 7,8     11,0     16,5 8,7 72 84 95 1.023 1.024 1.025 N 3,2 16,6 0,0
21-11-2020 8,2     11,6     16,7 8,5 73 82 90 1.022 1.024 1.025 NNE 4,8 18,5 0,0
20-11-2020 9,6     12,9     17,5 7,9 67 82 96 1.022 1.023 1.025 NNE 4,6 24,1 0,0
19-11-2020 12,7     15,2     19,5 6,8 79 89 98 1.024 1.025 1.027 N 5,3 22,2 0,0
18-11-2020 12,9     15,2     19,4 6,5 98 98 98 1.024 S 2,1 12,9 0,0
17-11-2020 13,9     16,2     19,7 5,8 86 92 98 1.021 1.022 1.024 SSO 3,6 14,8 0,0
16-11-2020 14,5     19,0     23,3 8,8 58 77 96 1.016 1.018 1.022 N 8,4 31,4 0,0
15-11-2020 13,3     17,6     22,4 9,1 64 81 98 1.016 1.017 1.018 SSO 3,7 12,9 0,0
14-11-2020 12,5     15,3     18,6 6,1 93 96 98 1.017 1.017 1.019 O 3,7 14,8 0,0
13-11-2020 13,9     15,4     19,0 5,1 89 94 98 1.016 1.017 1.018 N 10,9 27,8 0,0
12-11-2020 10,8     14,3     18,8 8,0 77 88 98 1.018 1.019 1.020 ENE 3,0 18,5 0,0
11-11-2020 11,9     14,6     19,1 7,2 74 86 98 1.020 1.021 1.023 N 6,0 14,8 0,0
10-11-2020 11,9     15,1     19,4 7,5 68 82 96 1.019 1.021 1.023 NNE 7,4 22,2 0,0
09-11-2020 11,3     14,8     20,0 8,7 80 88 96 1.017 1.018 1.020 SSO 2,3 11,1 0,0
08-11-2020 12,4     15,5     20,5 8,1 65 82 98 1.018 1.020 1.021 SSO 2,6 11,1 0,0
07-11-2020 13,8     17,2     21,0 7,2 80 89 98 1.012 1.016 1.021 SSO 5,0 22,2 11,0 0,13 0,60
06-11-2020 16,7     18,6     22,1 5,4 89 94 98 1.014 1.017 1.019 NNE 10,2 20,4 0,0
05-11-2020 13,0     16,9     19,1 6,1 98 98 98 1.017 ENE 10,4 31,4 9,1
Últims 13 mesos disponibles
10/2020 9,5 13,5 17,0 17,7 19,0 22,5 28,7 19,2 44 70 89 996 1.014 1.022 SSO 6,8 55,5 19,1
09/2020 14,1 18,0 22,5 22,0 22,5 26,7 30,6 16,5 40 73 90 1.008 1.015 1.021 SSO 6,2 44,4 3,0
08/2020 16,0 21,0 23,6 25,3 23,9 29,9 33,4 17,4 64 79 89 1.001 1.012 1.017 SSO 6,8 55,5 28,7
07/2020 18,0 20,9 24,1 24,8 26,3 29,6 34,4 16,4 60 79 94 1.009 1.014 1.019 SO 7,6 34,2 4,1
06/2020 13,7 17,2 19,6 21,4 18,9 26,1 31,1 17,4 48 79 96 1.002 1.012 1.019 ONO 6,4 47,4 46,8
05/2020 12,3 15,1 19,0 19,6 19,1 24,5 28,3 16,0 54 72 90 1.002 1.014 1.024 O 7,5 41,1 12,9
04/2020 7,7 11,2 16,3 14,3 14,9 18,7 23,5 15,8 57 84 98 1.002 1.012 1.022 OSO 7,3 46,8 41,9
03/2020 6,3 9,7 14,8 12,9 9,9 16,9 23,7 17,4 40 77 98 1.003 1.013 1.022 NO 9,9 58,6 56,8
02/2020 6,3 9,8 14,5 13,4 12,6 17,7 25,3 19,0 35 75 98 1.010 1.021 1.029 OSO 4,9 36,3 5,0
01/2020 4,9 7,6 14,2 10,7 11,7 14,8 20,5 15,6 55 79 98 1.010 1.021 1.028 O 6,7 86,6 229,3
12/2019 5,8 10,1 14,4 12,8 12,1 16,7 22,0 16,2 46 77 97 1.001 1.015 1.028 OSO 7,2 54,6 144,0
11/2019 5,8 11,0 20,0 14,2 13,1 18,1 25,7 19,9 39 58 83 994 1.007 1.015 O 9,9 56,4 22,0
10/2019 10,1 15,4 18,9 18,8 15,5 23,1 26,7 16,6 48 77 96 1.004 1.013 1.018 OSO 6,2 84,9 79,2
Tots els anys disponibles
2019 2,4 13,3 25,3 17,1 10,6 21,7 36,0 33,6 29 71 98 992 1.013 1.029 SO 9,1 84,9 776,3
2018 1,9 13,3 24,3 17,0 7,0 21,6 35,4 33,5 33 71 98 57 986 1.028 SSO 9,0 84,2 580,5
2017 -0,4 13,4 25,4 17,3 6,6 22,0 35,8 36,2 31 70 96 971 1.015 1.031 S 9,0 87,0 647,4
2016 2,8 13,6 25,8 17,8 11,2 22,0 38,4 35,6 24 68 98 981 1.017 1.035 57,0 401,7
Temperatura (°C)
Humitat relativa (%)
Velocitat del vent i ràfega màxima (km/h)
Direcció del vent (°)
Pressió (hPa)
Precipitació (mm)
Nota sobre les dades: s'avisa a l'usuari de la provisionalitat i no oficialitat d'aquestes dades
Logo AVAMET blanc
Web allotjada a Sollutia
Llicència de Creative CommonsLa web d'AVAMET i els seus continguts estan subjectes a una llicència de
Reconeixement - No Comercial - Compartir igual
Avís legal - Política de privacitat - Política de cookies
NOVES ESTACIONS: València - l'Olivereta (Soci), Xixona - Carrasqueta/Bugaia (Soci), l'Alcúdia de Crespins/Canals - la Muntanyeta (Soci), Utiel - est (Soci), Xàbia - Cansalades (Soci), Alginet (Soci), Quatretondeta (Ajuntament Soci) Enguera - Benali (Soci/ADENE), la Vall d'Alba - sud (Ajuntament Soci), El Fondó dels Frares (Estació pròpia d'AVAMET nº34) - - -